sensor_id;sensor_type;location;lat;lon;timestamp;temperature;humidity
44559;DHT22;30270;40.238;18.256;2023-01-19T00:01:32;15.10;99.90
44559;DHT22;30270;40.238;18.256;2023-01-19T00:03:59;15.10;99.90
44559;DHT22;30270;40.238;18.256;2023-01-19T00:06:27;15.10;99.90
44559;DHT22;30270;40.238;18.256;2023-01-19T00:08:55;15.10;99.90
44559;DHT22;30270;40.238;18.256;2023-01-19T00:11:22;15.10;99.90
44559;DHT22;30270;40.238;18.256;2023-01-19T00:13:50;15.10;99.90
44559;DHT22;30270;40.238;18.256;2023-01-19T00:16:19;15.10;99.90
44559;DHT22;30270;40.238;18.256;2023-01-19T00:18:50;15.20;99.90
44559;DHT22;30270;40.238;18.256;2023-01-19T00:21:19;15.20;99.90
44559;DHT22;30270;40.238;18.256;2023-01-19T00:23:47;15.20;99.90
44559;DHT22;30270;40.238;18.256;2023-01-19T00:26:17;15.20;99.90
44559;DHT22;30270;40.238;18.256;2023-01-19T00:28:47;15.20;99.90
44559;DHT22;30270;40.238;18.256;2023-01-19T00:31:16;15.20;99.90
44559;DHT22;30270;40.238;18.256;2023-01-19T00:33:47;15.20;99.90
44559;DHT22;30270;40.238;18.256;2023-01-19T00:36:15;15.20;99.90
44559;DHT22;30270;40.238;18.256;2023-01-19T00:38:43;15.20;99.90
44559;DHT22;30270;40.238;18.256;2023-01-19T00:41:10;15.20;99.90
44559;DHT22;30270;40.238;18.256;2023-01-19T00:43:38;15.20;99.90
44559;DHT22;30270;40.238;18.256;2023-01-19T00:46:05;15.10;99.90
44559;DHT22;30270;40.238;18.256;2023-01-19T00:48:33;15.10;99.90
44559;DHT22;30270;40.238;18.256;2023-01-19T00:51:01;15.10;99.90
44559;DHT22;30270;40.238;18.256;2023-01-19T00:53:28;15.10;99.90
44559;DHT22;30270;40.238;18.256;2023-01-19T00:55:58;15.10;99.90
44559;DHT22;30270;40.238;18.256;2023-01-19T00:58:26;15.10;99.90
44559;DHT22;30270;40.238;18.256;2023-01-19T01:00:53;15.10;99.90
44559;DHT22;30270;40.238;18.256;2023-01-19T01:03:24;15.10;99.90
44559;DHT22;30270;40.238;18.256;2023-01-19T01:05:54;15.20;99.90
44559;DHT22;30270;40.238;18.256;2023-01-19T01:08:21;15.20;99.90
44559;DHT22;30270;40.238;18.256;2023-01-19T01:10:52;15.30;99.90
44559;DHT22;30270;40.238;18.256;2023-01-19T01:13:20;15.30;99.90
44559;DHT22;30270;40.238;18.256;2023-01-19T01:15:50;15.30;99.90
44559;DHT22;30270;40.238;18.256;2023-01-19T01:18:18;15.30;99.90
44559;DHT22;30270;40.238;18.256;2023-01-19T01:20:45;15.30;99.90
44559;DHT22;30270;40.238;18.256;2023-01-19T01:23:13;15.30;99.90
44559;DHT22;30270;40.238;18.256;2023-01-19T01:25:41;15.30;99.90
44559;DHT22;30270;40.238;18.256;2023-01-19T01:28:09;15.30;99.90
44559;DHT22;30270;40.238;18.256;2023-01-19T01:30:37;15.30;99.90
44559;DHT22;30270;40.238;18.256;2023-01-19T01:33:07;15.30;99.90
44559;DHT22;30270;40.238;18.256;2023-01-19T01:35:35;15.30;99.90
44559;DHT22;30270;40.238;18.256;2023-01-19T01:38:03;15.30;99.90
44559;DHT22;30270;40.238;18.256;2023-01-19T01:40:30;15.40;99.90
44559;DHT22;30270;40.238;18.256;2023-01-19T01:42:58;15.30;99.90
44559;DHT22;30270;40.238;18.256;2023-01-19T01:45:35;15.30;99.90
44559;DHT22;30270;40.238;18.256;2023-01-19T01:48:23;15.30;99.90
44559;DHT22;30270;40.238;18.256;2023-01-19T01:50:58;15.30;99.90
44559;DHT22;30270;40.238;18.256;2023-01-19T01:53:48;15.30;99.90
44559;DHT22;30270;40.238;18.256;2023-01-19T01:56:21;15.30;99.90
44559;DHT22;30270;40.238;18.256;2023-01-19T01:58:51;15.30;99.90
44559;DHT22;30270;40.238;18.256;2023-01-19T02:01:19;15.30;99.90
44559;DHT22;30270;40.238;18.256;2023-01-19T02:04:05;15.20;99.90
44559;DHT22;30270;40.238;18.256;2023-01-19T02:06:33;15.20;99.90
44559;DHT22;30270;40.238;18.256;2023-01-19T02:09:20;15.20;99.90
44559;DHT22;30270;40.238;18.256;2023-01-19T02:12:07;15.20;99.90
44559;DHT22;30270;40.238;18.256;2023-01-19T02:14:53;15.20;99.90
44559;DHT22;30270;40.238;18.256;2023-01-19T02:17:21;15.20;99.90
44559;DHT22;30270;40.238;18.256;2023-01-19T02:19:49;15.20;99.90
44559;DHT22;30270;40.238;18.256;2023-01-19T02:23:12;15.10;99.90
44559;DHT22;30270;40.238;18.256;2023-01-19T02:25:17;15.10;99.90
44559;DHT22;30270;40.238;18.256;2023-01-19T02:27:46;15.10;99.90
44559;DHT22;30270;40.238;18.256;2023-01-19T02:30:15;15.10;99.90
44559;DHT22;30270;40.238;18.256;2023-01-19T02:32:43;15.10;99.90
44559;DHT22;30270;40.238;18.256;2023-01-19T02:35:14;15.10;99.90
44559;DHT22;30270;40.238;18.256;2023-01-19T02:37:42;15.10;99.90
44559;DHT22;30270;40.238;18.256;2023-01-19T02:40:13;15.10;99.90
44559;DHT22;30270;40.238;18.256;2023-01-19T02:42:49;15.10;99.90
44559;DHT22;30270;40.238;18.256;2023-01-19T02:45:20;15.10;99.90
44559;DHT22;30270;40.238;18.256;2023-01-19T02:47:50;15.10;99.90
44559;DHT22;30270;40.238;18.256;2023-01-19T02:50:42;15.20;99.90
44559;DHT22;30270;40.238;18.256;2023-01-19T03:01:46;15.10;99.90
44559;DHT22;30270;40.238;18.256;2023-01-19T03:07:07;15.10;99.90
44559;DHT22;30270;40.238;18.256;2023-01-19T03:09:59;15.10;99.90
44559;DHT22;30270;40.238;18.256;2023-01-19T03:15:18;14.90;99.90
44559;DHT22;30270;40.238;18.256;2023-01-19T03:17:48;14.60;99.90
44559;DHT22;30270;40.238;18.256;2023-01-19T03:20:21;14.20;99.90
44559;DHT22;30270;40.238;18.256;2023-01-19T03:22:58;13.90;99.90
44559;DHT22;30270;40.238;18.256;2023-01-19T03:25:28;13.70;99.90
44559;DHT22;30270;40.238;18.256;2023-01-19T03:27:57;13.40;99.90
44559;DHT22;30270;40.238;18.256;2023-01-19T03:30:27;13.40;99.90
44559;DHT22;30270;40.238;18.256;2023-01-19T03:33:02;13.40;99.90
44559;DHT22;30270;40.238;18.256;2023-01-19T03:35:34;13.40;99.90
44559;DHT22;30270;40.238;18.256;2023-01-19T03:38:05;13.50;99.90
44559;DHT22;30270;40.238;18.256;2023-01-19T03:40:35;13.50;99.90
44559;DHT22;30270;40.238;18.256;2023-01-19T03:43:04;13.60;99.90
44559;DHT22;30270;40.238;18.256;2023-01-19T03:45:33;13.40;99.90
44559;DHT22;30270;40.238;18.256;2023-01-19T03:48:04;13.20;99.90
44559;DHT22;30270;40.238;18.256;2023-01-19T03:50:32;13.00;99.90
44559;DHT22;30270;40.238;18.256;2023-01-19T03:53:05;13.00;99.90
44559;DHT22;30270;40.238;18.256;2023-01-19T03:55:36;13.00;99.90
44559;DHT22;30270;40.238;18.256;2023-01-19T03:58:04;13.00;99.90
44559;DHT22;30270;40.238;18.256;2023-01-19T04:00:32;13.10;99.90
44559;DHT22;30270;40.238;18.256;2023-01-19T04:02:59;13.10;99.90
44559;DHT22;30270;40.238;18.256;2023-01-19T04:05:28;13.20;99.90
44559;DHT22;30270;40.238;18.256;2023-01-19T04:07:56;13.20;99.90
44559;DHT22;30270;40.238;18.256;2023-01-19T04:10:23;13.30;99.90
44559;DHT22;30270;40.238;18.256;2023-01-19T04:12:57;13.50;99.90
44559;DHT22;30270;40.238;18.256;2023-01-19T04:15:26;13.50;99.90
44559;DHT22;30270;40.238;18.256;2023-01-19T04:17:53;13.60;99.90
44559;DHT22;30270;40.238;18.256;2023-01-19T04:20:23;13.50;99.90
44559;DHT22;30270;40.238;18.256;2023-01-19T04:22:53;13.50;99.90
44559;DHT22;30270;40.238;18.256;2023-01-19T04:25:22;13.50;99.90
44559;DHT22;30270;40.238;18.256;2023-01-19T04:27:53;13.50;99.90
44559;DHT22;30270;40.238;18.256;2023-01-19T04:30:21;13.50;99.90
44559;DHT22;30270;40.238;18.256;2023-01-19T04:32:48;13.30;99.90
44559;DHT22;30270;40.238;18.256;2023-01-19T04:35:16;13.30;99.90
44559;DHT22;30270;40.238;18.256;2023-01-19T04:37:43;13.30;99.90
44559;DHT22;30270;40.238;18.256;2023-01-19T04:40:11;13.40;99.90
44559;DHT22;30270;40.238;18.256;2023-01-19T04:42:43;13.50;99.90
44559;DHT22;30270;40.238;18.256;2023-01-19T04:45:12;13.40;99.90
44559;DHT22;30270;40.238;18.256;2023-01-19T04:47:39;13.40;99.90
44559;DHT22;30270;40.238;18.256;2023-01-19T04:50:09;13.30;99.90
44559;DHT22;30270;40.238;18.256;2023-01-19T04:52:37;13.30;99.90
44559;DHT22;30270;40.238;18.256;2023-01-19T04:55:06;13.30;99.90
44559;DHT22;30270;40.238;18.256;2023-01-19T04:57:34;13.30;99.90
44559;DHT22;30270;40.238;18.256;2023-01-19T05:00:03;13.30;99.90
44559;DHT22;30270;40.238;18.256;2023-01-19T05:02:33;13.20;99.90
44559;DHT22;30270;40.238;18.256;2023-01-19T05:05:01;13.10;99.90
44559;DHT22;30270;40.238;18.256;2023-01-19T05:07:29;12.90;99.90
44559;DHT22;30270;40.238;18.256;2023-01-19T05:09:56;13.00;99.90
44559;DHT22;30270;40.238;18.256;2023-01-19T05:12:24;13.00;99.90
44559;DHT22;30270;40.238;18.256;2023-01-19T05:14:51;12.90;99.90
44559;DHT22;30270;40.238;18.256;2023-01-19T05:17:19;12.90;99.90
44559;DHT22;30270;40.238;18.256;2023-01-19T05:19:46;13.00;99.90
44559;DHT22;30270;40.238;18.256;2023-01-19T05:22:15;12.90;99.90
44559;DHT22;30270;40.238;18.256;2023-01-19T05:24:43;13.00;99.90
44559;DHT22;30270;40.238;18.256;2023-01-19T05:27:11;13.00;99.90
44559;DHT22;30270;40.238;18.256;2023-01-19T05:29:38;12.90;99.90
44559;DHT22;30270;40.238;18.256;2023-01-19T05:32:06;12.90;99.90
44559;DHT22;30270;40.238;18.256;2023-01-19T05:34:34;12.90;99.90
44559;DHT22;30270;40.238;18.256;2023-01-19T05:37:01;12.90;99.90
44559;DHT22;30270;40.238;18.256;2023-01-19T05:39:29;12.90;99.90
44559;DHT22;30270;40.238;18.256;2023-01-19T05:41:57;12.90;99.90
44559;DHT22;30270;40.238;18.256;2023-01-19T05:44:24;12.90;99.90
44559;DHT22;30270;40.238;18.256;2023-01-19T05:46:52;12.90;99.90
44559;DHT22;30270;40.238;18.256;2023-01-19T05:49:20;12.80;99.90
44559;DHT22;30270;40.238;18.256;2023-01-19T05:51:47;12.80;99.90
44559;DHT22;30270;40.238;18.256;2023-01-19T05:54:15;12.80;99.90
44559;DHT22;30270;40.238;18.256;2023-01-19T05:56:43;12.80;99.90
44559;DHT22;30270;40.238;18.256;2023-01-19T05:59:10;12.80;99.90
44559;DHT22;30270;40.238;18.256;2023-01-19T06:01:38;12.80;99.90
44559;DHT22;30270;40.238;18.256;2023-01-19T06:04:06;12.80;99.90
44559;DHT22;30270;40.238;18.256;2023-01-19T06:06:33;12.80;99.90
44559;DHT22;30270;40.238;18.256;2023-01-19T06:09:01;12.90;99.90
44559;DHT22;30270;40.238;18.256;2023-01-19T06:11:28;12.90;99.90
44559;DHT22;30270;40.238;18.256;2023-01-19T06:13:56;13.00;99.90
44559;DHT22;30270;40.238;18.256;2023-01-19T06:16:23;13.00;99.90
44559;DHT22;30270;40.238;18.256;2023-01-19T06:18:51;13.00;99.90
44559;DHT22;30270;40.238;18.256;2023-01-19T06:21:20;13.10;99.90
44559;DHT22;30270;40.238;18.256;2023-01-19T06:23:47;13.20;99.90
44559;DHT22;30270;40.238;18.256;2023-01-19T06:26:15;13.20;99.90
44559;DHT22;30270;40.238;18.256;2023-01-19T06:28:46;13.30;99.90
44559;DHT22;30270;40.238;18.256;2023-01-19T06:31:17;13.40;99.90
44559;DHT22;30270;40.238;18.256;2023-01-19T06:33:45;13.40;99.90
44559;DHT22;30270;40.238;18.256;2023-01-19T06:36:13;13.40;99.90
44559;DHT22;30270;40.238;18.256;2023-01-19T06:38:40;13.40;99.90
44559;DHT22;30270;40.238;18.256;2023-01-19T06:41:08;13.40;99.90
44559;DHT22;30270;40.238;18.256;2023-01-19T06:43:35;13.40;99.90
44559;DHT22;30270;40.238;18.256;2023-01-19T06:46:03;13.40;99.90
44559;DHT22;30270;40.238;18.256;2023-01-19T06:48:31;13.50;99.90
44559;DHT22;30270;40.238;18.256;2023-01-19T06:50:58;13.50;99.90
44559;DHT22;30270;40.238;18.256;2023-01-19T06:53:26;13.40;99.90
44559;DHT22;30270;40.238;18.256;2023-01-19T06:56:01;13.50;99.90
44559;DHT22;30270;40.238;18.256;2023-01-19T06:58:30;13.50;99.90
44559;DHT22;30270;40.238;18.256;2023-01-19T07:01:02;13.50;99.90
44559;DHT22;30270;40.238;18.256;2023-01-19T07:03:31;13.50;99.90
44559;DHT22;30270;40.238;18.256;2023-01-19T07:06:00;13.60;99.90
44559;DHT22;30270;40.238;18.256;2023-01-19T07:08:33;13.50;99.90
44559;DHT22;30270;40.238;18.256;2023-01-19T07:11:02;13.60;99.90
44559;DHT22;30270;40.238;18.256;2023-01-19T07:13:34;13.60;99.90
44559;DHT22;30270;40.238;18.256;2023-01-19T07:16:06;13.60;99.90
44559;DHT22;30270;40.238;18.256;2023-01-19T07:18:35;13.60;99.90
44559;DHT22;30270;40.238;18.256;2023-01-19T07:21:03;13.60;99.90
44559;DHT22;30270;40.238;18.256;2023-01-19T07:23:31;13.60;99.90
44559;DHT22;30270;40.238;18.256;2023-01-19T07:25:59;13.70;99.90
44559;DHT22;30270;40.238;18.256;2023-01-19T07:28:31;13.70;99.90
44559;DHT22;30270;40.238;18.256;2023-01-19T07:30:59;13.70;99.90
44559;DHT22;30270;40.238;18.256;2023-01-19T07:33:26;13.70;99.90
44559;DHT22;30270;40.238;18.256;2023-01-19T07:35:55;13.70;99.90
44559;DHT22;30270;40.238;18.256;2023-01-19T07:38:23;13.70;99.90
44559;DHT22;30270;40.238;18.256;2023-01-19T07:40:51;13.70;99.90
44559;DHT22;30270;40.238;18.256;2023-01-19T07:43:18;13.70;99.90
44559;DHT22;30270;40.238;18.256;2023-01-19T07:45:46;13.70;99.90
44559;DHT22;30270;40.238;18.256;2023-01-19T07:48:13;13.80;99.90
44559;DHT22;30270;40.238;18.256;2023-01-19T07:50:41;13.80;99.90
44559;DHT22;30270;40.238;18.256;2023-01-19T07:53:09;13.80;99.90
44559;DHT22;30270;40.238;18.256;2023-01-19T07:55:39;13.90;99.90
44559;DHT22;30270;40.238;18.256;2023-01-19T07:58:06;13.90;99.90
44559;DHT22;30270;40.238;18.256;2023-01-19T08:00:37;13.90;99.90
44559;DHT22;30270;40.238;18.256;2023-01-19T08:03:05;13.90;99.90
44559;DHT22;30270;40.238;18.256;2023-01-19T08:05:32;14.00;99.90
44559;DHT22;30270;40.238;18.256;2023-01-19T08:08:00;14.00;99.90
44559;DHT22;30270;40.238;18.256;2023-01-19T08:10:28;14.00;99.90
44559;DHT22;30270;40.238;18.256;2023-01-19T08:12:56;14.00;99.90
44559;DHT22;30270;40.238;18.256;2023-01-19T08:15:26;14.10;99.90
44559;DHT22;30270;40.238;18.256;2023-01-19T08:17:55;14.10;99.90
44559;DHT22;30270;40.238;18.256;2023-01-19T08:20:24;14.10;99.90
44559;DHT22;30270;40.238;18.256;2023-01-19T08:22:52;14.20;99.90
44559;DHT22;30270;40.238;18.256;2023-01-19T08:25:35;14.20;99.90
44559;DHT22;30270;40.238;18.256;2023-01-19T08:28:05;14.20;99.90
44559;DHT22;30270;40.238;18.256;2023-01-19T08:30:33;14.30;99.90
44559;DHT22;30270;40.238;18.256;2023-01-19T08:33:01;14.30;99.90
44559;DHT22;30270;40.238;18.256;2023-01-19T08:35:36;14.40;99.90
44559;DHT22;30270;40.238;18.256;2023-01-19T08:38:05;14.40;99.90
44559;DHT22;30270;40.238;18.256;2023-01-19T08:40:36;14.40;99.90
44559;DHT22;30270;40.238;18.256;2023-01-19T08:43:06;14.40;99.90
44559;DHT22;30270;40.238;18.256;2023-01-19T08:45:35;14.50;99.90
44559;DHT22;30270;40.238;18.256;2023-01-19T08:48:03;14.60;99.90
44559;DHT22;30270;40.238;18.256;2023-01-19T08:50:33;14.70;99.90
44559;DHT22;30270;40.238;18.256;2023-01-19T08:53:02;14.70;99.90
44559;DHT22;30270;40.238;18.256;2023-01-19T08:55:32;14.70;99.90
44559;DHT22;30270;40.238;18.256;2023-01-19T08:58:00;14.70;99.90
44559;DHT22;30270;40.238;18.256;2023-01-19T09:00:31;14.80;99.90
44559;DHT22;30270;40.238;18.256;2023-01-19T09:03:00;14.90;99.90
44559;DHT22;30270;40.238;18.256;2023-01-19T09:05:31;15.00;99.90
44559;DHT22;30270;40.238;18.256;2023-01-19T09:08:08;15.00;99.90
44559;DHT22;30270;40.238;18.256;2023-01-19T09:10:37;15.10;99.90
44559;DHT22;30270;40.238;18.256;2023-01-19T09:13:07;15.30;99.90
44559;DHT22;30270;40.238;18.256;2023-01-19T09:15:38;15.30;99.90
44559;DHT22;30270;40.238;18.256;2023-01-19T09:18:08;15.30;99.90
44559;DHT22;30270;40.238;18.256;2023-01-19T09:20:41;15.30;99.90
44559;DHT22;30270;40.238;18.256;2023-01-19T09:23:10;15.30;99.90
44559;DHT22;30270;40.238;18.256;2023-01-19T09:25:44;15.20;99.90
44559;DHT22;30270;40.238;18.256;2023-01-19T09:28:13;15.10;99.90
44559;DHT22;30270;40.238;18.256;2023-01-19T09:30:42;14.90;99.90
44559;DHT22;30270;40.238;18.256;2023-01-19T09:33:15;14.80;99.90
44559;DHT22;30270;40.238;18.256;2023-01-19T09:35:45;14.70;99.90
44559;DHT22;30270;40.238;18.256;2023-01-19T09:38:14;14.60;99.90
44559;DHT22;30270;40.238;18.256;2023-01-19T09:40:48;14.60;99.90
44559;DHT22;30270;40.238;18.256;2023-01-19T09:49:13;14.50;99.90
44559;DHT22;30270;40.238;18.256;2023-01-19T09:51:45;14.70;99.90
44559;DHT22;30270;40.238;18.256;2023-01-19T09:54:19;14.80;99.90
44559;DHT22;30270;40.238;18.256;2023-01-19T09:56:48;15.10;99.90
44559;DHT22;30270;40.238;18.256;2023-01-19T09:59:22;15.40;99.90
44559;DHT22;30270;40.238;18.256;2023-01-19T10:04:29;15.70;99.90
44559;DHT22;30270;40.238;18.256;2023-01-19T10:10:20;15.90;99.90
44559;DHT22;30270;40.238;18.256;2023-01-19T10:18:39;15.70;99.90
44559;DHT22;30270;40.238;18.256;2023-01-19T10:27:01;15.70;99.90
44559;DHT22;30270;40.238;18.256;2023-01-19T10:29:27;15.70;99.90
44559;DHT22;30270;40.238;18.256;2023-01-19T10:32:09;15.80;99.90
44559;DHT22;30270;40.238;18.256;2023-01-19T10:34:39;15.90;99.90
44559;DHT22;30270;40.238;18.256;2023-01-19T10:37:21;16.10;99.90
44559;DHT22;30270;40.238;18.256;2023-01-19T10:42:39;15.80;99.90
44559;DHT22;30270;40.238;18.256;2023-01-19T10:45:19;15.90;99.90
44559;DHT22;30270;40.238;18.256;2023-01-19T10:47:48;15.80;99.90
44559;DHT22;30270;40.238;18.256;2023-01-19T10:52:55;15.80;99.90
44559;DHT22;30270;40.238;18.256;2023-01-19T10:58:00;15.40;99.90
44559;DHT22;30270;40.238;18.256;2023-01-19T11:00:38;15.40;99.90
44559;DHT22;30270;40.238;18.256;2023-01-19T11:03:29;15.40;99.90
44559;DHT22;30270;40.238;18.256;2023-01-19T11:06:20;15.40;99.90
44559;DHT22;30270;40.238;18.256;2023-01-19T11:08:49;15.40;99.90
44559;DHT22;30270;40.238;18.256;2023-01-19T11:11:19;15.40;99.90
44559;DHT22;30270;40.238;18.256;2023-01-19T11:14:12;15.30;99.90
44559;DHT22;30270;40.238;18.256;2023-01-19T11:16:45;15.30;99.90
44559;DHT22;30270;40.238;18.256;2023-01-19T11:19:30;15.20;99.90
44559;DHT22;30270;40.238;18.256;2023-01-19T11:22:16;15.10;99.90
44559;DHT22;30270;40.238;18.256;2023-01-19T11:24:51;15.00;99.90
44559;DHT22;30270;40.238;18.256;2023-01-19T11:27:20;15.00;99.90
44559;DHT22;30270;40.238;18.256;2023-01-19T11:29:55;15.10;99.90
44559;DHT22;30270;40.238;18.256;2023-01-19T11:32:26;15.00;99.90
44559;DHT22;30270;40.238;18.256;2023-01-19T11:34:54;15.00;99.90
44559;DHT22;30270;40.238;18.256;2023-01-19T11:37:28;15.10;99.90
44559;DHT22;30270;40.238;18.256;2023-01-19T11:39:58;15.10;99.90
44559;DHT22;30270;40.238;18.256;2023-01-19T11:42:29;15.20;99.90
44559;DHT22;30270;40.238;18.256;2023-01-19T11:45:14;15.20;99.90
44559;DHT22;30270;40.238;18.256;2023-01-19T11:47:45;15.10;99.90
44559;DHT22;30270;40.238;18.256;2023-01-19T11:50:44;15.20;99.90
44559;DHT22;30270;40.238;18.256;2023-01-19T11:53:24;15.20;99.90
44559;DHT22;30270;40.238;18.256;2023-01-19T11:56:08;15.10;99.90
44559;DHT22;30270;40.238;18.256;2023-01-19T11:58:42;15.00;99.90
44559;DHT22;30270;40.238;18.256;2023-01-19T12:01:39;14.90;99.90
44559;DHT22;30270;40.238;18.256;2023-01-19T12:04:41;14.90;99.90
44559;DHT22;30270;40.238;18.256;2023-01-19T12:07:11;14.90;99.90
44559;DHT22;30270;40.238;18.256;2023-01-19T12:09:44;15.00;99.90
44559;DHT22;30270;40.238;18.256;2023-01-19T12:12:34;15.00;99.90
44559;DHT22;30270;40.238;18.256;2023-01-19T12:17:39;14.80;99.90
44559;DHT22;30270;40.238;18.256;2023-01-19T12:28:36;14.60;99.90
44559;DHT22;30270;40.238;18.256;2023-01-19T12:31:05;14.50;99.90
44559;DHT22;30270;40.238;18.256;2023-01-19T12:33:38;14.50;99.90
44559;DHT22;30270;40.238;18.256;2023-01-19T12:38:55;14.40;99.90
44559;DHT22;30270;40.238;18.256;2023-01-19T12:41:33;14.30;99.90
44559;DHT22;30270;40.238;18.256;2023-01-19T12:46:41;14.30;99.90
44559;DHT22;30270;40.238;18.256;2023-01-19T12:51:51;14.20;99.90
44559;DHT22;30270;40.238;18.256;2023-01-19T12:54:29;14.20;99.90
44559;DHT22;30270;40.238;18.256;2023-01-19T12:57:07;14.20;99.90
44559;DHT22;30270;40.238;18.256;2023-01-19T12:59:36;14.20;99.90
44559;DHT22;30270;40.238;18.256;2023-01-19T13:11:15;14.20;99.90
44559;DHT22;30270;40.238;18.256;2023-01-19T13:24:09;14.20;99.90
44559;DHT22;30270;40.238;18.256;2023-01-19T13:29:33;14.10;99.90
44559;DHT22;30270;40.238;18.256;2023-01-19T13:32:05;14.20;99.90
44559;DHT22;30270;40.238;18.256;2023-01-19T13:34:38;14.00;99.90
44559;DHT22;30270;40.238;18.256;2023-01-19T13:37:17;14.00;99.90
44559;DHT22;30270;40.238;18.256;2023-01-19T13:39:47;13.90;99.90
44559;DHT22;30270;40.238;18.256;2023-01-19T13:42:24;13.80;99.90
44559;DHT22;30270;40.238;18.256;2023-01-19T13:44:57;13.90;99.90
44559;DHT22;30270;40.238;18.256;2023-01-19T13:47:44;13.80;99.90
44559;DHT22;30270;40.238;18.256;2023-01-19T13:52:46;14.00;99.90
44559;DHT22;30270;40.238;18.256;2023-01-19T13:55:17;14.00;99.90
44559;DHT22;30270;40.238;18.256;2023-01-19T13:57:48;14.10;99.90
44559;DHT22;30270;40.238;18.256;2023-01-19T14:00:24;14.10;99.90
44559;DHT22;30270;40.238;18.256;2023-01-19T14:05:37;14.10;99.90
44559;DHT22;30270;40.238;18.256;2023-01-19T14:10:46;14.00;99.90
44559;DHT22;30270;40.238;18.256;2023-01-19T14:13:28;14.10;99.90
44559;DHT22;30270;40.238;18.256;2023-01-19T14:16:04;14.10;99.90
44559;DHT22;30270;40.238;18.256;2023-01-19T14:18:34;14.20;99.90
44559;DHT22;30270;40.238;18.256;2023-01-19T14:21:03;14.20;99.90
44559;DHT22;30270;40.238;18.256;2023-01-19T14:23:54;14.20;99.90
44559;DHT22;30270;40.238;18.256;2023-01-19T14:26:48;14.40;99.90
44559;DHT22;30270;40.238;18.256;2023-01-19T14:29:22;14.40;99.90
44559;DHT22;30270;40.238;18.256;2023-01-19T14:42:31;14.20;99.90
44559;DHT22;30270;40.238;18.256;2023-01-19T14:45:01;14.20;99.90
44559;DHT22;30270;40.238;18.256;2023-01-19T14:47:38;14.20;99.90
44559;DHT22;30270;40.238;18.256;2023-01-19T14:50:21;14.20;99.90
44559;DHT22;30270;40.238;18.256;2023-01-19T14:53:22;14.10;99.90
44559;DHT22;30270;40.238;18.256;2023-01-19T14:56:00;14.10;99.90
44559;DHT22;30270;40.238;18.256;2023-01-19T14:58:30;14.10;99.90
44559;DHT22;30270;40.238;18.256;2023-01-19T15:00:59;14.10;99.90
44559;DHT22;30270;40.238;18.256;2023-01-19T15:03:27;14.20;99.90
44559;DHT22;30270;40.238;18.256;2023-01-19T15:06:18;14.20;99.90
44559;DHT22;30270;40.238;18.256;2023-01-19T15:08:47;14.20;99.90
44559;DHT22;30270;40.238;18.256;2023-01-19T15:11:22;14.20;99.90
44559;DHT22;30270;40.238;18.256;2023-01-19T15:13:51;14.20;99.90
44559;DHT22;30270;40.238;18.256;2023-01-19T15:16:18;14.20;99.90
44559;DHT22;30270;40.238;18.256;2023-01-19T15:18:46;14.10;99.90
44559;DHT22;30270;40.238;18.256;2023-01-19T15:21:15;14.10;99.90
44559;DHT22;30270;40.238;18.256;2023-01-19T15:23:46;14.00;99.90
44559;DHT22;30270;40.238;18.256;2023-01-19T15:26:18;13.90;99.90
44559;DHT22;30270;40.238;18.256;2023-01-19T15:28:46;13.90;99.90
44559;DHT22;30270;40.238;18.256;2023-01-19T15:31:22;13.90;99.90
44559;DHT22;30270;40.238;18.256;2023-01-19T15:33:51;13.80;99.90
44559;DHT22;30270;40.238;18.256;2023-01-19T15:36:21;13.80;99.90
44559;DHT22;30270;40.238;18.256;2023-01-19T15:38:50;13.80;99.90
44559;DHT22;30270;40.238;18.256;2023-01-19T15:41:24;13.80;99.90
44559;DHT22;30270;40.238;18.256;2023-01-19T15:43:52;13.80;99.90
44559;DHT22;30270;40.238;18.256;2023-01-19T15:46:21;13.80;99.90
44559;DHT22;30270;40.238;18.256;2023-01-19T15:48:49;13.80;99.90
44559;DHT22;30270;40.238;18.256;2023-01-19T15:51:19;13.80;99.90
44559;DHT22;30270;40.238;18.256;2023-01-19T15:53:47;13.80;99.90
44559;DHT22;30270;40.238;18.256;2023-01-19T15:56:20;13.80;99.90
44559;DHT22;30270;40.238;18.256;2023-01-19T15:58:48;13.80;99.90
44559;DHT22;30270;40.238;18.256;2023-01-19T16:01:19;13.70;99.90
44559;DHT22;30270;40.238;18.256;2023-01-19T16:03:48;13.80;99.90
44559;DHT22;30270;40.238;18.256;2023-01-19T16:06:16;13.70;99.90
44559;DHT22;30270;40.238;18.256;2023-01-19T16:08:44;13.70;99.90
44559;DHT22;30270;40.238;18.256;2023-01-19T16:11:14;13.60;99.90
44559;DHT22;30270;40.238;18.256;2023-01-19T16:13:45;13.40;99.90
44559;DHT22;30270;40.238;18.256;2023-01-19T16:16:16;13.30;99.90
44559;DHT22;30270;40.238;18.256;2023-01-19T16:18:44;13.20;99.90
44559;DHT22;30270;40.238;18.256;2023-01-19T16:21:12;13.10;99.90
44559;DHT22;30270;40.238;18.256;2023-01-19T16:23:40;13.10;99.90
44559;DHT22;30270;40.238;18.256;2023-01-19T16:28:55;12.90;99.90
44559;DHT22;30270;40.238;18.256;2023-01-19T16:31:23;12.80;99.90
44559;DHT22;30270;40.238;18.256;2023-01-19T16:33:51;12.80;99.90
44559;DHT22;30270;40.238;18.256;2023-01-19T16:38:46;12.70;99.90
44559;DHT22;30270;40.238;18.256;2023-01-19T16:41:14;12.60;99.90
44559;DHT22;30270;40.238;18.256;2023-01-19T16:43:42;12.70;99.90
44559;DHT22;30270;40.238;18.256;2023-01-19T16:46:25;12.70;99.90
44559;DHT22;30270;40.238;18.256;2023-01-19T16:48:58;12.70;99.90
44559;DHT22;30270;40.238;18.256;2023-01-19T16:51:27;12.80;99.90
44559;DHT22;30270;40.238;18.256;2023-01-19T16:53:55;12.80;99.90
44559;DHT22;30270;40.238;18.256;2023-01-19T16:56:22;12.90;99.90
44559;DHT22;30270;40.238;18.256;2023-01-19T16:58:53;12.80;99.90
44559;DHT22;30270;40.238;18.256;2023-01-19T17:01:22;12.80;99.90
44559;DHT22;30270;40.238;18.256;2023-01-19T17:03:50;12.70;99.90
44559;DHT22;30270;40.238;18.256;2023-01-19T17:06:19;12.70;99.90
44559;DHT22;30270;40.238;18.256;2023-01-19T17:08:51;12.70;99.90
44559;DHT22;30270;40.238;18.256;2023-01-19T17:11:21;12.80;99.90
44559;DHT22;30270;40.238;18.256;2023-01-19T17:13:53;12.60;99.90
44559;DHT22;30270;40.238;18.256;2023-01-19T17:16:21;12.60;99.90
44559;DHT22;30270;40.238;18.256;2023-01-19T17:18:50;12.70;99.90
44559;DHT22;30270;40.238;18.256;2023-01-19T17:21:18;12.70;99.90
44559;DHT22;30270;40.238;18.256;2023-01-19T17:23:48;12.80;99.90
44559;DHT22;30270;40.238;18.256;2023-01-19T17:26:16;12.80;99.90
44559;DHT22;30270;40.238;18.256;2023-01-19T17:28:45;12.80;99.90
44559;DHT22;30270;40.238;18.256;2023-01-19T17:31:20;12.90;99.90